Time;durP1;ratioP1;P1;durP2;ratioP2;P2;SDS_P1;SDS_P2;PMS_P1;PMS_P2;Temp;Humidity;BMP_temperature;BMP_pressure;BME280_temperature;BME280_humidity;BME280_pressure;Samples;Min_cycle;Max_cycle;Signal;HPM_P1;HPM_P2
2022/09/25 00:01:01;;;;;;;3.30;1.02;;;19.80;69.00;;;;;;4993599;28;20041;-61
2022/09/25 00:03:27;;;;;;;2.25;1.08;;;19.80;69.10;;;;;;4994383;28;20133;-61
2022/09/25 00:05:59;;;;;;;3.83;1.20;;;19.80;69.00;;;;;;4993173;28;20046;-61
2022/09/25 00:08:25;;;;;;;4.65;1.25;;;19.80;69.00;;;;;;4994132;28;20128;-61
2022/09/25 00:10:51;;;;;;;3.65;1.25;;;19.70;69.10;;;;;;4994181;28;20043;-61
2022/09/25 00:13:18;;;;;;;3.78;1.30;;;19.80;69.00;;;;;;4993443;28;20066;-61
2022/09/25 00:15:48;;;;;;;3.60;1.27;;;19.80;69.00;;;;;;4994001;28;20379;-61
2022/09/25 00:18:15;;;;;;;4.13;1.30;;;19.70;68.90;;;;;;4994101;28;20050;-61
2022/09/25 00:20:40;;;;;;;4.38;1.30;;;19.70;68.90;;;;;;4993616;28;20113;-61
2022/09/25 00:23:06;;;;;;;4.32;1.40;;;19.70;68.90;;;;;;4994118;28;20117;-61
2022/09/25 00:25:32;;;;;;;3.20;1.23;;;19.70;68.80;;;;;;4994065;28;20485;-61
2022/09/25 00:27:57;;;;;;;3.72;1.38;;;19.70;68.80;;;;;;4993691;28;20129;-61
2022/09/25 00:30:23;;;;;;;4.03;1.23;;;19.70;68.90;;;;;;4993784;28;20050;-61
2022/09/25 00:32:48;;;;;;;2.70;1.17;;;19.70;68.80;;;;;;4993629;28;20075;-61
2022/09/25 00:35:14;;;;;;;2.75;1.00;;;19.70;68.80;;;;;;4994006;28;20050;-61
2022/09/25 00:37:39;;;;;;;3.30;1.20;;;19.70;68.80;;;;;;4994314;28;20047;-61
2022/09/25 00:40:06;;;;;;;6.10;1.40;;;19.70;68.80;;;;;;4993218;28;20049;-61
2022/09/25 00:42:31;;;;;;;4.68;1.10;;;19.70;68.80;;;;;;4994010;28;20057;-62
2022/09/25 00:45:04;;;;;;;4.78;1.23;;;19.70;68.80;;;;;;4993716;28;20054;-61
2022/09/25 00:47:51;;;;;;;4.80;1.00;;;19.70;68.80;;;;;;4992693;28;20502;-61
2022/09/25 00:50:56;;;;;;;3.50;1.40;;;19.70;68.80;;;;;;4993151;28;20038;-61
2022/09/25 00:53:27;;;;;;;3.00;0.88;;;19.70;68.70;;;;;;4990287;28;20072;-61
2022/09/25 00:55:53;;;;;;;3.70;0.95;;;19.70;68.70;;;;;;4992878;28;20506;-61
2022/09/25 00:58:19;;;;;;;2.25;1.13;;;19.60;68.70;;;;;;4993141;28;20050;-61
2022/09/25 01:00:45;;;;;;;4.03;1.00;;;19.60;68.70;;;;;;4991476;28;20053;-62
2022/09/25 01:03:11;;;;;;;2.58;1.17;;;19.60;68.60;;;;;;4993150;28;20046;-61
2022/09/25 01:05:37;;;;;;;3.45;1.17;;;19.60;68.60;;;;;;4975926;28;20042;-61
2022/09/25 01:08:04;;;;;;;4.82;1.02;;;19.60;68.60;;;;;;4991576;28;20046;-61
2022/09/25 01:10:30;;;;;;;3.40;0.90;;;19.70;68.60;;;;;;4975637;28;20573;-61
2022/09/25 01:12:56;;;;;;;3.20;0.95;;;19.70;68.60;;;;;;4992539;28;20113;-61
2022/09/25 01:15:52;;;;;;;3.97;1.15;;;19.60;68.50;;;;;;4992566;28;20101;-62
2022/09/25 01:18:42;;;;;;;3.13;0.98;;;19.60;68.50;;;;;;4992938;28;20046;-61
2022/09/25 01:21:43;;;;;;;3.88;0.90;;;19.60;68.50;;;;;;4993037;28;20045;-61
2022/09/25 01:24:48;;;;;;;3.13;1.10;;;19.60;68.40;;;;;;4913005;29;20051;-61
2022/09/25 01:27:47;;;;;;;3.03;1.00;;;19.60;68.50;;;;;;4964861;28;20058;-61
2022/09/25 01:30:14;;;;;;;3.20;1.10;;;19.60;69.10;;;;;;4992213;28;20046;-61
2022/09/25 01:33:26;;;;;;;4.50;1.00;;;19.60;68.50;;;;;;4991682;28;20390;-61
2022/09/25 01:36:13;;;;;;;3.65;0.70;;;19.60;68.40;;;;;;4897744;29;20538;-62
2022/09/25 01:38:47;;;;;;;4.03;0.95;;;19.60;68.50;;;;;;4898113;29;20389;-61
2022/09/25 01:41:16;;;;;;;2.25;0.80;;;19.60;68.50;;;;;;4954075;28;20050;-61
2022/09/25 01:44:00;;;;;;;;;;;19.50;68.40;;;;;;4991262;28;20085;-61
2022/09/25 01:46:33;;;;;;;2.65;0.90;;;19.50;68.40;;;;;;4992623;28;20078;-61
2022/09/25 01:49:08;;;;;;;1.77;0.90;;;19.50;68.50;;;;;;4991770;28;20042;-61
2022/09/25 01:51:42;;;;;;;3.90;1.00;;;19.50;68.70;;;;;;4992028;28;20051;-61
2022/09/25 01:54:28;;;;;;;3.08;0.93;;;19.50;68.40;;;;;;4974790;28;20061;-61
2022/09/25 01:56:55;;;;;;;2.15;0.80;;;19.50;68.40;;;;;;4991978;28;20046;-61
2022/09/25 01:59:26;;;;;;;2.15;0.82;;;19.50;68.40;;;;;;4990580;28;20185;-62
2022/09/25 02:01:52;;;;;;;4.65;1.17;;;19.60;68.50;;;;;;4974906;28;20050;-61
2022/09/25 02:04:20;;;;;;;2.17;0.75;;;19.50;68.40;;;;;;4973692;28;20049;-61
2022/09/25 02:06:46;;;;;;;4.57;1.13;;;19.50;68.50;;;;;;4992286;28;20486;-62
2022/09/25 02:09:31;;;;;;;3.05;0.98;;;19.50;68.40;;;;;;4974864;28;20081;-62
2022/09/25 02:11:58;;;;;;;2.25;0.68;;;19.50;68.40;;;;;;4974854;28;20045;-62
2022/09/25 02:14:45;;;;;;;3.55;1.17;;;19.50;68.40;;;;;;4974590;28;20544;-61
2022/09/25 02:20:30;;;;;;;2.30;0.90;;;19.50;68.40;;;;;;4992454;28;20049;-62
2022/09/25 02:22:42;;;;;;;3.08;1.30;;;19.50;68.40;;;;;;4977806;28;20046;-61
2022/09/25 02:25:17;;;;;;;2.75;0.80;;;19.50;68.40;;;;;;4977610;28;20100;-61
2022/09/25 02:27:42;;;;;;;1.25;0.68;;;19.50;68.40;;;;;;4979086;28;20402;-61
2022/09/25 02:30:10;;;;;;;2.28;0.70;;;19.50;68.40;;;;;;4995756;28;20053;-61
2022/09/25 02:32:36;;;;;;;3.27;0.90;;;19.50;68.30;;;;;;4994452;28;20054;-62
2022/09/25 02:35:01;;;;;;;4.25;0.80;;;19.50;68.30;;;;;;4996452;28;20034;-62
2022/09/25 02:37:27;;;;;;;3.10;1.00;;;19.50;68.30;;;;;;4978352;28;20409;-61
2022/09/25 02:39:54;;;;;;;3.10;0.80;;;19.50;68.30;;;;;;4995639;28;20043;-61
2022/09/25 02:42:49;;;;;;;2.22;0.82;;;19.50;68.30;;;;;;4994625;28;20117;-61
2022/09/25 02:45:39;;;;;;;1.73;0.60;;;19.50;68.30;;;;;;4995720;28;20054;-62
2022/09/25 02:48:40;;;;;;;2.00;0.82;;;19.50;68.30;;;;;;4995566;28;20061;-61
2022/09/25 02:51:27;;;;;;;1.85;0.70;;;19.50;68.20;;;;;;4978879;28;20046;-61
2022/09/25 02:54:11;;;;;;;2.20;1.00;;;19.40;68.20;;;;;;4994338;28;20150;-61
2022/09/25 02:56:40;;;;;;;2.72;0.77;;;19.40;68.10;;;;;;4994521;28;20553;-62
2022/09/25 02:59:08;;;;;;;3.35;0.93;;;19.50;68.30;;;;;;4994551;28;20046;-62
2022/09/25 03:01:36;;;;;;;2.47;0.80;;;19.40;68.20;;;;;;4993935;28;20486;-61
2022/09/25 03:04:02;;;;;;;1.48;0.77;;;19.40;68.20;;;;;;4978286;28;20053;-62
2022/09/25 03:06:27;;;;;;;1.52;0.60;;;19.40;68.10;;;;;;4993915;28;20512;-62
2022/09/25 03:08:55;;;;;;;1.77;0.60;;;19.40;68.10;;;;;;4993523;28;20043;-61
2022/09/25 03:11:22;;;;;;;2.40;0.95;;;19.40;68.10;;;;;;4978113;28;20065;-61
2022/09/25 03:13:59;;;;;;;2.92;0.73;;;19.40;68.10;;;;;;4995631;28;20089;-61
2022/09/25 03:16:55;;;;;;;1.67;0.63;;;19.40;68.10;;;;;;4994576;28;20058;-62
2022/09/25 03:19:21;;;;;;;1.35;0.70;;;19.40;68.00;;;;;;4994330;28;20048;-62
2022/09/25 03:21:46;;;;;;;3.00;0.90;;;19.40;68.00;;;;;;4994904;28;20125;-62
2022/09/25 03:24:13;;;;;;;1.67;0.52;;;19.40;68.00;;;;;;4995288;28;20138;-61
2022/09/25 03:26:39;;;;;;;3.55;0.98;;;19.40;68.00;;;;;;4995239;28;20046;-61
2022/09/25 03:29:05;;;;;;;1.83;0.50;;;19.40;67.90;;;;;;4994628;28;20560;-61
2022/09/25 03:31:30;;;;;;;1.98;0.70;;;19.40;67.90;;;;;;4994914;28;20409;-62
2022/09/25 03:33:56;;;;;;;2.50;0.73;;;19.40;67.90;;;;;;4995351;28;20038;-62
2022/09/25 03:36:23;;;;;;;2.17;0.95;;;19.40;67.80;;;;;;4993191;28;20107;-62
2022/09/25 03:38:51;;;;;;;2.97;0.75;;;19.40;67.80;;;;;;4995400;28;20154;-63
2022/09/25 03:41:20;;;;;;;2.40;0.80;;;19.40;67.70;;;;;;4994819;28;20052;-61
2022/09/25 03:43:50;;;;;;;3.30;0.80;;;19.40;67.60;;;;;;4993806;28;20058;-64
2022/09/25 03:46:16;;;;;;;2.70;0.82;;;19.40;67.70;;;;;;4994751;28;20054;-61
2022/09/25 03:48:42;;;;;;;1.75;0.60;;;19.40;67.70;;;;;;4995266;28;20061;-61
2022/09/25 03:51:08;;;;;;;1.67;0.73;;;19.40;67.70;;;;;;4993805;28;20043;-61
2022/09/25 03:53:33;;;;;;;2.25;0.85;;;19.40;67.70;;;;;;4995133;28;20042;-62
2022/09/25 03:56:03;;;;;;;1.55;0.50;;;19.40;67.50;;;;;;4994761;28;20089;-61
2022/09/25 03:58:29;;;;;;;2.35;0.70;;;19.40;67.60;;;;;;4993385;28;20072;-61
2022/09/25 04:00:56;;;;;;;2.05;0.55;;;19.40;67.50;;;;;;4991168;28;20453;-61
2022/09/25 04:03:22;;;;;;;1.80;0.70;;;19.40;67.60;;;;;;4990260;28;20049;-61
2022/09/25 04:05:47;;;;;;;1.80;0.70;;;19.40;67.60;;;;;;4993299;28;20130;-62
2022/09/25 04:08:13;;;;;;;2.22;0.73;;;19.40;67.70;;;;;;4994246;28;20122;-62
2022/09/25 04:10:39;;;;;;;2.25;0.70;;;19.40;67.60;;;;;;4993773;28;20371;-61
2022/09/25 04:13:10;;;;;;;2.17;0.65;;;19.40;67.60;;;;;;4994370;28;20050;-61
2022/09/25 04:15:35;;;;;;;1.33;0.43;;;19.40;67.60;;;;;;4994473;28;20054;-61
2022/09/25 04:18:01;;;;;;;2.25;0.50;;;19.40;67.60;;;;;;4993229;28;20038;-61
2022/09/25 04:20:27;;;;;;;1.75;0.50;;;19.40;67.60;;;;;;4993790;28;20065;-61
2022/09/25 04:22:52;;;;;;;2.40;0.70;;;19.40;67.50;;;;;;4994447;28;20100;-62
2022/09/25 04:25:20;;;;;;;2.55;0.70;;;19.40;67.50;;;;;;4993512;28;20046;-62
2022/09/25 04:27:46;;;;;;;1.63;0.60;;;19.40;67.50;;;;;;4993993;28;20068;-61
2022/09/25 04:30:12;;;;;;;4.07;0.70;;;19.40;67.50;;;;;;4993900;28;20223;-61
2022/09/25 04:35:21;;;;;;;1.48;0.50;;;19.50;67.50;;;;;;4993901;28;20050;-61
2022/09/25 04:37:47;;;;;;;1.05;0.55;;;19.50;67.50;;;;;;4994022;28;20081;-62
2022/09/25 04:40:13;;;;;;;2.15;0.93;;;19.50;67.40;;;;;;4992780;28;20042;-61
2022/09/25 04:42:38;;;;;;;2.05;0.60;;;19.50;67.40;;;;;;4993703;28;20046;-61
2022/09/25 04:45:04;;;;;;;1.52;0.65;;;19.50;67.40;;;;;;4993692;28;20061;-61
2022/09/25 04:47:30;;;;;;;1.13;0.47;;;19.50;67.40;;;;;;4992523;28;20053;-61
2022/09/25 04:49:56;;;;;;;2.05;0.60;;;19.50;67.40;;;;;;4993784;28;20042;-62
2022/09/25 04:52:21;;;;;;;1.27;0.60;;;19.50;67.40;;;;;;4992803;28;20050;-61
2022/09/25 04:54:47;;;;;;;2.17;0.70;;;19.50;68.00;;;;;;4992875;28;20046;-62
2022/09/25 04:57:14;;;;;;;1.52;0.50;;;19.50;67.40;;;;;;4993205;28;20121;-62
2022/09/25 04:59:40;;;;;;;2.67;0.57;;;19.50;67.40;;;;;;4993495;28;20490;-62
2022/09/25 05:02:05;;;;;;;2.30;0.82;;;19.50;67.40;;;;;;4992506;28;20050;-61
2022/09/25 05:04:31;;;;;;;1.23;0.60;;;19.50;67.40;;;;;;4993515;28;20038;-61
2022/09/25 05:06:56;;;;;;;1.25;0.50;;;19.50;67.40;;;;;;4992628;28;20047;-62
2022/09/25 05:09:22;;;;;;;2.55;0.85;;;19.60;67.50;;;;;;4993218;28;20069;-61
2022/09/25 05:11:48;;;;;;;1.67;0.52;;;19.60;67.40;;;;;;4993379;28;20057;-61
2022/09/25 05:14:13;;;;;;;1.83;0.60;;;19.60;67.40;;;;;;4992412;28;20533;-62
2022/09/25 05:16:39;;;;;;;1.27;0.60;;;19.60;67.40;;;;;;4993188;28;20050;-61
2022/09/25 05:19:04;;;;;;;2.30;0.60;;;19.60;67.40;;;;;;4993235;28;20133;-61
2022/09/25 05:21:31;;;;;;;1.08;0.50;;;19.60;67.30;;;;;;4992236;28;20130;-61
2022/09/25 05:23:57;;;;;;;1.80;0.60;;;19.60;67.30;;;;;;4993035;28;20085;-62
2022/09/25 05:26:23;;;;;;;1.40;0.55;;;19.60;67.30;;;;;;4992737;28;20081;-61
2022/09/25 05:28:51;;;;;;;2.22;0.50;;;19.60;67.20;;;;;;4992366;28;20037;-61
2022/09/25 05:31:17;;;;;;;2.08;0.60;;;19.60;67.20;;;;;;4992780;28;20046;-61
2022/09/25 05:33:43;;;;;;;2.20;0.60;;;19.60;67.20;;;;;;4993352;28;20065;-61
2022/09/25 05:36:08;;;;;;;1.98;0.50;;;19.60;67.10;;;;;;4991712;28;20542;-62
2022/09/25 05:38:35;;;;;;;1.10;0.43;;;19.70;67.20;;;;;;4993066;28;20140;-61
2022/09/25 05:41:03;;;;;;;2.25;0.60;;;19.70;67.20;;;;;;4993170;28;20046;-61
2022/09/25 05:43:29;;;;;;;1.70;0.57;;;19.70;67.20;;;;;;4991935;28;20050;-61
2022/09/25 05:45:55;;;;;;;0.95;0.40;;;19.70;67.20;;;;;;4993313;28;20152;-61
2022/09/25 05:48:21;;;;;;;2.63;0.60;;;19.70;67.20;;;;;;4974591;28;20092;-62
2022/09/25 05:50:53;;;;;;;1.77;0.65;;;19.70;67.20;;;;;;4992049;28;20505;-61
2022/09/25 05:53:19;;;;;;;1.55;0.60;;;19.70;67.20;;;;;;4992500;28;20058;-61
2022/09/25 05:55:54;;;;;;;1.55;0.60;;;19.80;67.20;;;;;;4992744;28;20047;-61
2022/09/25 05:58:20;;;;;;;1.20;0.40;;;19.80;67.20;;;;;;4991393;28;20053;-61
2022/09/25 06:00:46;;;;;;;0.90;0.60;;;19.80;67.20;;;;;;4992939;28;20053;-62
2022/09/25 06:03:12;;;;;;;1.70;0.57;;;19.80;67.20;;;;;;4991628;28;20402;-62
2022/09/25 06:05:39;;;;;;;2.55;0.55;;;19.80;67.10;;;;;;4992598;28;20034;-62
2022/09/25 06:08:05;;;;;;;2.58;0.57;;;19.80;67.10;;;;;;4992861;28;20042;-62
2022/09/25 06:10:30;;;;;;;1.60;0.50;;;19.80;67.00;;;;;;4991325;28;20050;-62
2022/09/25 06:13:01;;;;;;;3.17;0.52;;;19.90;67.00;;;;;;4992901;28;20126;-62
2022/09/25 06:15:28;;;;;;;1.70;0.60;;;19.90;67.00;;;;;;4975136;28;20054;-62
2022/09/25 06:17:56;;;;;;;4.32;0.60;;;19.90;67.00;;;;;;4991866;28;20196;-65
2022/09/25 06:20:22;;;;;;;2.88;0.70;;;19.90;67.00;;;;;;4991893;28;20093;-62
2022/09/25 06:22:54;;;;;;;1.95;0.50;;;19.90;67.10;;;;;;4992435;28;20050;-60
2022/09/25 06:25:22;;;;;;;2.92;0.57;;;19.90;67.20;;;;;;4991502;28;20092;-62
2022/09/25 06:27:50;;;;;;;1.73;0.57;;;19.90;67.20;;;;;;4992519;28;20050;-63
2022/09/25 06:30:18;;;;;;;;;;;20.00;67.40;;;;;;4991311;28;20050;-62
2022/09/25 06:32:44;;;;;;;2.08;0.45;;;20.00;67.30;;;;;;4991465;28;19925;-63
2022/09/25 06:35:10;;;;;;;1.90;0.60;;;20.00;67.30;;;;;;4992153;28;20052;-62
2022/09/25 06:37:35;;;;;;;4.57;1.13;;;20.00;67.20;;;;;;4988018;28;20089;-61
2022/09/25 06:40:01;;;;;;;2.15;0.50;;;20.00;67.30;;;;;;4989037;28;20050;-62
2022/09/25 06:42:27;;;;;;;2.25;0.50;;;20.10;67.40;;;;;;4972683;28;20413;-61
2022/09/25 06:44:52;;;;;;;3.15;0.55;;;20.10;67.40;;;;;;4989917;28;20502;-63
2022/09/25 06:47:18;;;;;;;3.33;0.55;;;20.10;67.50;;;;;;4988508;28;20454;-62
2022/09/25 06:49:45;;;;;;;3.78;0.60;;;20.10;67.60;;;;;;4990052;28;20042;-62
2022/09/25 06:52:11;;;;;;;2.45;0.80;;;20.20;67.60;;;;;;4990079;28;20406;-62
2022/09/25 06:54:36;;;;;;;3.20;0.50;;;20.20;67.70;;;;;;4991160;28;20125;-62
2022/09/25 06:57:02;;;;;;;3.25;0.43;;;20.20;67.70;;;;;;4992401;28;20130;-62
2022/09/25 06:59:27;;;;;;;2.95;0.60;;;20.30;67.70;;;;;;4991080;28;20544;-63
2022/09/25 07:01:53;;;;;;;3.35;0.75;;;20.30;67.80;;;;;;4992395;28;20042;-62
2022/09/25 07:04:19;;;;;;;1.60;0.60;;;20.30;67.70;;;;;;4991593;28;20556;-62
2022/09/25 07:06:45;;;;;;;2.08;0.50;;;20.30;67.80;;;;;;4991657;28;20047;-63
2022/09/25 07:09:11;;;;;;;3.85;0.50;;;20.40;67.80;;;;;;4991956;28;20173;-63
2022/09/25 07:11:36;;;;;;;2.17;0.55;;;20.40;67.80;;;;;;4990780;28;20121;-62
2022/09/25 07:14:02;;;;;;;2.70;0.52;;;20.40;67.70;;;;;;4983481;28;20053;-61
2022/09/25 07:16:29;;;;;;;1.75;0.40;;;20.40;67.80;;;;;;4986757;28;20053;-61
2022/09/25 07:18:56;;;;;;;3.20;0.80;;;20.50;67.80;;;;;;4985609;28;20173;-61
2022/09/25 07:21:23;;;;;;;1.90;0.52;;;20.50;67.80;;;;;;4983301;28;20046;-61
2022/09/25 07:23:49;;;;;;;1.45;0.70;;;20.50;67.80;;;;;;4985514;28;20038;-61
2022/09/25 07:26:22;;;;;;;4.38;0.55;;;20.50;67.80;;;;;;4985352;28;20038;-62
2022/09/25 07:28:53;;;;;;;1.35;0.40;;;20.50;67.80;;;;;;4980045;28;20047;-61
2022/09/25 07:31:21;;;;;;;1.55;0.50;;;20.50;67.80;;;;;;4975618;28;20039;-61
2022/09/25 07:33:47;;;;;;;3.87;0.50;;;20.60;67.80;;;;;;4975787;28;20047;-61
2022/09/25 07:36:13;;;;;;;2.55;0.60;;;20.60;67.80;;;;;;4974451;28;20047;-62
2022/09/25 07:38:39;;;;;;;1.98;0.50;;;20.60;67.80;;;;;;4976717;28;20042;-61
2022/09/25 07:41:05;;;;;;;2.55;0.60;;;20.60;67.80;;;;;;4991130;28;20031;-62
2022/09/25 07:43:32;;;;;;;1.67;0.50;;;20.70;68.40;;;;;;4992957;28;20089;-61
2022/09/25 07:45:58;;;;;;;2.47;0.50;;;20.70;67.80;;;;;;4992143;28;20066;-60
2022/09/25 07:48:23;;;;;;;1.75;0.40;;;20.70;67.70;;;;;;4990502;28;20069;-64
2022/09/25 07:50:49;;;;;;;4.63;0.80;;;20.70;67.90;;;;;;4979330;28;20043;-62
2022/09/25 07:53:17;;;;;;;4.10;0.60;;;20.70;67.90;;;;;;4975039;28;20042;-62
2022/09/25 07:55:44;;;;;;;3.45;0.50;;;20.70;67.90;;;;;;4974387;28;20406;-62
2022/09/25 07:58:10;;;;;;;4.00;0.80;;;20.70;67.80;;;;;;4987436;28;20050;-62
2022/09/25 08:00:36;;;;;;;2.15;0.60;;;20.70;67.70;;;;;;4992705;28;20050;-62
2022/09/25 08:03:02;;;;;;;1.95;0.60;;;20.70;67.70;;;;;;4992941;28;20049;-64
2022/09/25 08:05:27;;;;;;;3.03;0.88;;;20.80;67.70;;;;;;4994443;28;20132;-62
2022/09/25 08:07:53;;;;;;;2.85;0.60;;;20.80;67.70;;;;;;4994470;28;20042;-62
2022/09/25 08:10:19;;;;;;;1.85;0.60;;;20.80;67.70;;;;;;4993311;28;20093;-62
2022/09/25 08:12:44;;;;;;;3.70;0.55;;;20.80;67.70;;;;;;4994270;28;20136;-62
2022/09/25 08:15:10;;;;;;;2.95;0.68;;;20.80;67.70;;;;;;4994312;28;20042;-62
2022/09/25 08:17:36;;;;;;;2.33;0.73;;;20.90;67.70;;;;;;4993533;28;20057;-62
2022/09/25 08:20:01;;;;;;;6.50;0.90;;;20.90;67.70;;;;;;4994546;28;20042;-62
2022/09/25 08:22:27;;;;;;;5.60;1.30;;;20.90;67.70;;;;;;4993524;28;20050;-63
2022/09/25 08:24:52;;;;;;;5.57;1.38;;;20.90;67.70;;;;;;4993359;28;20078;-62
2022/09/25 08:27:18;;;;;;;6.28;1.58;;;21.00;67.60;;;;;;4971540;28;20039;-61
2022/09/25 08:29:44;;;;;;;4.35;1.38;;;21.00;67.30;;;;;;4974761;28;20499;-61
2022/09/25 08:32:09;;;;;;;7.13;1.65;;;21.00;67.30;;;;;;4956157;28;20073;-65
2022/09/25 08:34:35;;;;;;;4.22;1.63;;;21.00;67.30;;;;;;4974692;28;20082;-65
2022/09/25 08:37:00;;;;;;;6.20;1.65;;;21.00;67.30;;;;;;4974605;28;20057;-63
2022/09/25 08:39:26;;;;;;;9.13;1.48;;;21.00;67.30;;;;;;4982145;28;20089;-65
2022/09/25 08:41:53;;;;;;;6.95;1.50;;;21.00;67.40;;;;;;4983380;28;20034;-65
2022/09/25 08:44:34;;;;;;;6.30;1.57;;;21.00;67.50;;;;;;4983021;28;20105;-65
2022/09/25 08:50:07;;;;;;;6.18;1.48;;;21.00;67.70;;;;;;4991520;28;20490;-66
2022/09/25 08:52:33;;;;;;;4.55;1.90;;;21.00;67.70;;;;;;4992911;28;20069;-65
2022/09/25 08:54:58;;;;;;;6.00;1.65;;;21.10;67.80;;;;;;4993859;28;20447;-65
2022/09/25 08:57:34;;;;;;;4.65;1.40;;;21.10;67.80;;;;;;4993462;28;20042;-65
2022/09/25 09:00:09;;;;;;;6.13;1.55;;;21.10;67.90;;;;;;4991801;28;20038;-66
2022/09/25 09:02:37;;;;;;;7.43;1.63;;;21.10;67.90;;;;;;4975866;28;20050;-65
2022/09/25 09:05:03;;;;;;;4.45;1.88;;;21.10;67.90;;;;;;4993790;28;20050;-66
2022/09/25 09:07:43;;;;;;;4.95;1.60;;;21.10;67.80;;;;;;4991106;28;20442;-65
2022/09/25 09:10:23;;;;;;;7.30;2.03;;;21.10;68.50;;;;;;4993028;28;20053;-65
2022/09/25 09:12:52;;;;;;;6.50;1.48;;;21.20;67.90;;;;;;4992910;28;20085;-65
2022/09/25 09:15:42;;;;;;;6.60;1.63;;;21.20;67.90;;;;;;4970538;28;20119;-63
2022/09/25 09:18:22;;;;;;;7.90;1.60;;;21.20;67.80;;;;;;4972329;28;20051;-65
2022/09/25 09:20:55;;;;;;;2.67;1.15;;;21.20;67.90;;;;;;4969929;28;20057;-69
2022/09/25 09:23:30;;;;;;;7.15;1.50;;;21.20;67.90;;;;;;4992425;28;20046;-66
2022/09/25 09:26:05;;;;;;;6.35;1.50;;;21.20;67.70;;;;;;4987358;28;20042;-63
2022/09/25 09:28:58;;;;;;;4.72;1.40;;;21.20;67.70;;;;;;4972024;28;20058;-65
2022/09/25 09:31:26;;;;;;;5.72;1.08;;;21.20;68.00;;;;;;4959005;28;20053;-65
2022/09/25 09:34:18;;;;;;;;;;;21.20;68.00;;;;;;4973338;28;20097;-65
2022/09/25 09:37:00;;;;;;;5.47;1.33;;;21.20;67.90;;;;;;4970654;28;19976;-65
2022/09/25 09:39:55;;;;;;;4.65;1.30;;;21.20;68.00;;;;;;4953804;28;20059;-65
2022/09/25 09:42:28;;;;;;;3.40;1.17;;;21.30;67.90;;;;;;4965693;28;20042;-66
2022/09/25 09:45:16;;;;;;;5.35;1.05;;;21.20;67.90;;;;;;4984086;28;20058;-65
2022/09/25 09:47:52;;;;;;;6.28;1.30;;;21.20;67.80;;;;;;4982190;28;20054;-64
2022/09/25 09:50:35;;;;;;;3.88;1.13;;;21.30;67.90;;;;;;4979656;28;20047;-65
2022/09/25 09:53:06;;;;;;;4.97;1.42;;;21.20;67.80;;;;;;4992229;28;20042;-66
2022/09/25 09:55:40;;;;;;;5.60;1.08;;;21.30;67.90;;;;;;4991111;28;20410;-65
2022/09/25 09:58:12;;;;;;;7.70;1.35;;;21.30;67.80;;;;;;4991772;28;20120;-66
2022/09/25 10:00:38;;;;;;;5.10;1.10;;;21.30;67.80;;;;;;4991872;28;20409;-65
2022/09/25 10:03:13;;;;;;;5.22;1.08;;;21.30;67.80;;;;;;4992242;28;20042;-65
2022/09/25 10:05:45;;;;;;;5.68;1.25;;;21.30;67.70;;;;;;4992034;28;20057;-65
2022/09/25 10:08:11;;;;;;;5.13;1.13;;;21.30;67.70;;;;;;4992724;28;20046;-65
2022/09/25 10:10:39;;;;;;;3.25;1.23;;;21.30;67.70;;;;;;4991023;28;20053;-65
2022/09/25 10:13:09;;;;;;;7.90;1.42;;;21.30;67.60;;;;;;4992635;28;20038;-65
2022/09/25 10:15:40;;;;;;;5.30;1.10;;;21.30;67.50;;;;;;4993161;28;20046;-65
2022/09/25 10:18:06;;;;;;;6.72;1.27;;;21.30;67.20;;;;;;4990655;28;20105;-65
2022/09/25 10:20:43;;;;;;;4.93;0.90;;;21.30;66.90;;;;;;4992912;28;20034;-65
2022/09/25 10:23:38;;;;;;;3.87;1.00;;;21.30;66.50;;;;;;4991338;28;20046;-65
2022/09/25 10:26:36;;;;;;;4.30;1.10;;;21.30;66.60;;;;;;4992680;28;20082;-65
2022/09/25 10:29:20;;;;;;;3.20;0.90;;;21.30;66.60;;;;;;4993183;28;20043;-64
2022/09/25 10:31:46;;;;;;;5.15;1.05;;;21.30;66.60;;;;;;4992890;28;20042;-65
2022/09/25 10:34:11;;;;;;;5.40;0.90;;;21.30;66.60;;;;;;4992346;28;20069;-64
2022/09/25 10:36:42;;;;;;;4.63;0.70;;;21.30;66.60;;;;;;4992865;28;20133;-63
2022/09/25 10:39:29;;;;;;;6.15;0.80;;;21.30;66.70;;;;;;4990843;28;20054;-63
2022/09/25 10:41:55;;;;;;;7.90;1.27;;;21.30;66.80;;;;;;4986959;28;20042;-62
2022/09/25 10:44:32;;;;;;;2.58;0.80;;;21.30;66.90;;;;;;4972713;28;20495;-62
2022/09/25 10:50:20;;;;;;;6.63;1.00;;;21.20;66.80;;;;;;4987510;28;20034;-62
2022/09/25 10:52:58;;;;;;;3.03;0.65;;;21.20;66.90;;;;;;4985394;28;20085;-62
2022/09/25 10:55:29;;;;;;;3.63;0.80;;;21.20;66.90;;;;;;4985308;28;20055;-62
2022/09/25 10:58:09;;;;;;;5.00;0.90;;;21.20;67.00;;;;;;4985676;28;20474;-62
2022/09/25 11:00:57;;;;;;;3.05;0.93;;;21.20;67.00;;;;;;4987989;28;20124;-62
2022/09/25 11:03:29;;;;;;;4.53;0.70;;;21.20;67.00;;;;;;4964438;28;20054;-63
2022/09/25 11:05:58;;;;;;;3.90;1.10;;;21.20;67.20;;;;;;4975148;28;20054;-62
2022/09/25 11:08:25;;;;;;;3.63;1.08;;;21.20;67.10;;;;;;4982415;28;20053;-63
2022/09/25 11:10:54;;;;;;;6.20;1.15;;;21.10;67.00;;;;;;4996065;28;20371;-63
2022/09/25 11:13:24;;;;;;;3.03;0.60;;;21.10;67.10;;;;;;4993857;28;20042;-63
2022/09/25 11:15:52;;;;;;;4.43;0.73;;;21.10;67.10;;;;;;4994971;28;20081;-63
2022/09/25 11:18:50;;;;;;;2.07;0.70;;;21.10;67.20;;;;;;4983936;28;20115;-65
2022/09/25 11:21:25;;;;;;;7.78;1.08;;;21.10;67.20;;;;;;4990733;28;20069;-64
2022/09/25 11:24:09;;;;;;;6.03;0.82;;;21.10;67.30;;;;;;4977685;28;20509;-64
2022/09/25 11:26:47;;;;;;;2.55;0.73;;;21.10;67.20;;;;;;4994059;28;20149;-65
2022/09/25 11:29:31;;;;;;;;;;;21.10;67.10;;;;;;4989839;28;20054;-63
2022/09/25 11:32:23;;;;;;;4.57;0.70;;;21.10;66.90;;;;;;4974590;28;19929;-64
2022/09/25 11:35:03;;;;;;;3.40;0.57;;;21.00;66.90;;;;;;4964479;28;20081;-65
2022/09/25 11:37:33;;;;;;;4.45;0.75;;;21.00;66.80;;;;;;4990749;28;20048;-64
2022/09/25 11:42:58;;;;;;;2.67;0.60;;;21.00;66.80;;;;;;4986992;28;20078;-64
2022/09/25 11:45:50;;;;;;;3.03;0.52;;;21.00;66.80;;;;;;4989765;28;20109;-64
2022/09/25 11:48:42;;;;;;;4.18;0.80;;;21.00;66.80;;;;;;4989653;28;20059;-64
2022/09/25 11:51:42;;;;;;;2.03;0.80;;;21.00;66.80;;;;;;4974882;28;20057;-64
2022/09/25 11:54:32;;;;;;;3.53;0.70;;;21.00;66.80;;;;;;4975521;28;20050;-64
2022/09/25 11:57:14;;;;;;;3.45;0.70;;;21.00;66.70;;;;;;4974020;28;20043;-64
2022/09/25 12:00:03;;;;;;;3.47;1.63;;;21.00;66.70;;;;;;4990465;28;20047;-64
2022/09/25 12:02:47;;;;;;;3.42;1.00;;;21.00;66.70;;;;;;4989170;28;20364;-64
2022/09/25 12:05:27;;;;;;;4.00;0.50;;;21.00;66.60;;;;;;4974423;28;20470;-64
2022/09/25 12:08:10;;;;;;;3.00;0.73;;;21.00;66.60;;;;;;4975270;28;20054;-64
2022/09/25 12:10:44;;;;;;;2.85;0.80;;;21.00;66.60;;;;;;4974737;28;20093;-64
2022/09/25 12:13:16;;;;;;;1.70;0.52;;;21.00;66.50;;;;;;4974822;28;20506;-64
2022/09/25 12:16:01;;;;;;;2.42;0.70;;;21.00;67.20;;;;;;4975334;28;20502;-64
2022/09/25 12:18:46;;;;;;;1.98;0.50;;;21.00;66.60;;;;;;4974656;28;20055;-64
2022/09/25 12:21:19;;;;;;;2.85;0.60;;;21.00;66.60;;;;;;4974754;28;20100;-63
2022/09/25 12:24:03;;;;;;;1.98;0.60;;;21.00;66.50;;;;;;4989441;28;20053;-64
2022/09/25 12:26:51;;;;;;;3.30;0.65;;;21.00;66.40;;;;;;4988518;28;20070;-64
2022/09/25 12:29:41;;;;;;;1.95;0.60;;;21.00;66.30;;;;;;4989223;28;20054;-64
2022/09/25 12:32:19;;;;;;;4.07;0.70;;;21.10;66.30;;;;;;4988624;28;20051;-64
2022/09/25 12:35:09;;;;;;;2.28;0.55;;;21.00;66.30;;;;;;4992851;28;20118;-64
2022/09/25 12:37:53;;;;;;;2.42;0.55;;;21.10;66.30;;;;;;4992726;28;20504;-64
2022/09/25 12:40:27;;;;;;;2.25;0.50;;;21.10;66.30;;;;;;4992596;28;20112;-64
2022/09/25 12:42:55;;;;;;;3.90;0.80;;;21.10;66.30;;;;;;4994057;28;20054;-64
2022/09/25 12:45:42;;;;;;;2.97;0.60;;;21.10;66.20;;;;;;4992729;28;20058;-64
2022/09/25 12:48:17;;;;;;;2.97;0.70;;;21.10;66.20;;;;;;4993835;28;20104;-64
2022/09/25 12:50:50;;;;;;;1.33;0.60;;;21.10;66.10;;;;;;4994090;28;20073;-63
2022/09/25 12:53:35;;;;;;;2.42;0.60;;;21.10;66.10;;;;;;4975568;28;20046;-64
2022/09/25 12:56:26;;;;;;;2.33;0.47;;;21.20;66.10;;;;;;4992539;28;20049;-64
2022/09/25 12:59:23;;;;;;;2.50;0.50;;;21.20;66.10;;;;;;4993149;28;20053;-64
2022/09/25 13:02:10;;;;;;;2.13;0.45;;;21.20;66.10;;;;;;4993651;28;20453;-64
2022/09/25 13:05:06;;;;;;;3.30;0.63;;;21.20;66.00;;;;;;4992711;28;20046;-64
2022/09/25 13:07:41;;;;;;;2.05;0.65;;;21.30;65.90;;;;;;4993263;28;20375;-64
2022/09/25 13:10:17;;;;;;;1.77;0.50;;;21.30;65.90;;;;;;4993529;28;20068;-63
2022/09/25 13:12:42;;;;;;;1.23;0.40;;;21.30;65.80;;;;;;4991487;28;20357;-64
2022/09/25 13:15:17;;;;;;;1.67;0.40;;;21.30;65.80;;;;;;4992244;28;20570;-64
2022/09/25 13:17:42;;;;;;;3.05;0.60;;;21.30;65.70;;;;;;4992415;28;20038;-64
2022/09/25 13:20:27;;;;;;;2.88;0.60;;;21.30;65.70;;;;;;4974899;28;20382;-64
2022/09/25 13:23:02;;;;;;;1.85;0.60;;;21.30;65.60;;;;;;4975681;28;20124;-64
2022/09/25 13:25:28;;;;;;;1.90;0.50;;;21.30;65.50;;;;;;4993255;28;20074;-64
2022/09/25 13:27:54;;;;;;;2.00;0.52;;;21.30;65.60;;;;;;4991367;28;20543;-63